X  SluitMETAR luchtvaart weer gegevens      EHGG Eelde

Temperatuur

12°C Temperatuur

11°C Dauwpunt

94% Vochtigheid



Wind

 5 KM/U

 3 MPH

 1 M/S

 3 KTS



150°
Zuid Zuid
Oost
Huidig weer

Helder Helder
Luchtdruk 1007.92 (hPa) - 29.76 (in)
Zicht 6.2 (mi) - 10 (km)
Vliegveld
Vliegveld code EHGG

Locatie Eelde 50 (km)

Metar:
EHGG 171855Z AUTO 15003KT 110V190 9999 NSC 12/11 Q1008 NOSIG

Tijd: 17-10-2019 20:55